sensor_id;sensor_type;location;lat;lon;timestamp;temperature;humidity
24426;DHT22;12611;44.446;26.000;2023-12-20T00:00:31;7.30;91.20
24426;DHT22;12611;44.446;26.000;2023-12-20T00:03:00;7.30;90.70
24426;DHT22;12611;44.446;26.000;2023-12-20T00:05:29;7.30;90.70
24426;DHT22;12611;44.446;26.000;2023-12-20T00:08:03;7.30;90.70
24426;DHT22;12611;44.446;26.000;2023-12-20T00:10:32;7.20;90.70
24426;DHT22;12611;44.446;26.000;2023-12-20T00:13:01;7.20;90.70
24426;DHT22;12611;44.446;26.000;2023-12-20T00:15:32;7.20;90.80
24426;DHT22;12611;44.446;26.000;2023-12-20T00:18:00;7.20;90.70
24426;DHT22;12611;44.446;26.000;2023-12-20T00:20:29;7.20;90.70
24426;DHT22;12611;44.446;26.000;2023-12-20T00:22:57;7.20;90.70
24426;DHT22;12611;44.446;26.000;2023-12-20T00:25:27;7.20;91.00
24426;DHT22;12611;44.446;26.000;2023-12-20T00:27:56;7.10;90.70
24426;DHT22;12611;44.446;26.000;2023-12-20T00:30:25;7.10;90.70
24426;DHT22;12611;44.446;26.000;2023-12-20T00:32:54;7.10;90.80
24426;DHT22;12611;44.446;26.000;2023-12-20T00:35:22;7.10;90.80
24426;DHT22;12611;44.446;26.000;2023-12-20T00:37:51;7.00;90.80
24426;DHT22;12611;44.446;26.000;2023-12-20T00:40:20;7.00;90.80
24426;DHT22;12611;44.446;26.000;2023-12-20T00:42:50;7.00;90.80
24426;DHT22;12611;44.446;26.000;2023-12-20T00:45:19;7.00;90.90
24426;DHT22;12611;44.446;26.000;2023-12-20T00:47:48;6.90;90.80
24426;DHT22;12611;44.446;26.000;2023-12-20T00:50:17;6.90;90.80
24426;DHT22;12611;44.446;26.000;2023-12-20T00:52:46;6.90;90.80
24426;DHT22;12611;44.446;26.000;2023-12-20T00:55:18;6.90;90.70
24426;DHT22;12611;44.446;26.000;2023-12-20T00:57:51;7.00;91.10
24426;DHT22;12611;44.446;26.000;2023-12-20T01:00:20;7.00;90.60
24426;DHT22;12611;44.446;26.000;2023-12-20T01:02:49;7.00;90.50
24426;DHT22;12611;44.446;26.000;2023-12-20T01:05:19;7.00;90.50
24426;DHT22;12611;44.446;26.000;2023-12-20T01:07:50;7.00;90.40
24426;DHT22;12611;44.446;26.000;2023-12-20T01:10:18;6.90;90.50
24426;DHT22;12611;44.446;26.000;2023-12-20T01:12:47;6.90;90.50
24426;DHT22;12611;44.446;26.000;2023-12-20T01:15:17;6.90;90.60
24426;DHT22;12611;44.446;26.000;2023-12-20T01:17:47;6.90;90.60
24426;DHT22;12611;44.446;26.000;2023-12-20T01:20:16;6.90;90.60
24426;DHT22;12611;44.446;26.000;2023-12-20T01:22:47;6.90;90.50
24426;DHT22;12611;44.446;26.000;2023-12-20T01:25:16;6.90;90.50
24426;DHT22;12611;44.446;26.000;2023-12-20T01:27:44;6.90;90.50
24426;DHT22;12611;44.446;26.000;2023-12-20T01:30:14;6.90;90.40
24426;DHT22;12611;44.446;26.000;2023-12-20T01:32:44;6.90;90.30
24426;DHT22;12611;44.446;26.000;2023-12-20T01:35:15;7.00;90.20
24426;DHT22;12611;44.446;26.000;2023-12-20T01:37:43;7.00;90.20
24426;DHT22;12611;44.446;26.000;2023-12-20T01:40:12;6.90;90.10
24426;DHT22;12611;44.446;26.000;2023-12-20T01:42:42;7.00;90.10
24426;DHT22;12611;44.446;26.000;2023-12-20T01:45:10;6.90;90.00
24426;DHT22;12611;44.446;26.000;2023-12-20T01:47:39;7.00;90.10
24426;DHT22;12611;44.446;26.000;2023-12-20T01:50:10;7.00;90.00
24426;DHT22;12611;44.446;26.000;2023-12-20T01:52:38;6.90;90.00
24426;DHT22;12611;44.446;26.000;2023-12-20T01:55:07;6.90;90.00
24426;DHT22;12611;44.446;26.000;2023-12-20T01:57:41;6.90;90.20
24426;DHT22;12611;44.446;26.000;2023-12-20T02:00:12;6.90;90.20
24426;DHT22;12611;44.446;26.000;2023-12-20T02:02:41;6.90;90.30
24426;DHT22;12611;44.446;26.000;2023-12-20T02:05:12;6.90;90.30
24426;DHT22;12611;44.446;26.000;2023-12-20T02:07:41;6.90;90.30
24426;DHT22;12611;44.446;26.000;2023-12-20T02:10:11;6.90;90.30
24426;DHT22;12611;44.446;26.000;2023-12-20T02:12:40;6.90;90.20
24426;DHT22;12611;44.446;26.000;2023-12-20T02:15:09;6.90;90.10
24426;DHT22;12611;44.446;26.000;2023-12-20T02:17:39;6.90;90.10
24426;DHT22;12611;44.446;26.000;2023-12-20T02:20:08;6.80;90.00
24426;DHT22;12611;44.446;26.000;2023-12-20T02:22:41;6.80;90.10
24426;DHT22;12611;44.446;26.000;2023-12-20T02:25:10;6.80;90.10
24426;DHT22;12611;44.446;26.000;2023-12-20T02:27:42;6.80;90.00
24426;DHT22;12611;44.446;26.000;2023-12-20T02:30:15;6.70;90.00
24426;DHT22;12611;44.446;26.000;2023-12-20T02:32:43;6.70;90.00
24426;DHT22;12611;44.446;26.000;2023-12-20T02:35:13;6.60;90.00
24426;DHT22;12611;44.446;26.000;2023-12-20T02:37:43;6.60;90.00
24426;DHT22;12611;44.446;26.000;2023-12-20T02:40:12;6.60;90.00
24426;DHT22;12611;44.446;26.000;2023-12-20T02:42:41;6.60;90.00
24426;DHT22;12611;44.446;26.000;2023-12-20T02:45:09;6.60;90.00
24426;DHT22;12611;44.446;26.000;2023-12-20T02:47:38;6.60;90.00
24426;DHT22;12611;44.446;26.000;2023-12-20T02:50:07;6.60;90.00
24426;DHT22;12611;44.446;26.000;2023-12-20T02:52:36;6.60;90.00
24426;DHT22;12611;44.446;26.000;2023-12-20T02:55:07;6.60;90.00
24426;DHT22;12611;44.446;26.000;2023-12-20T02:57:36;6.60;89.80
24426;DHT22;12611;44.446;26.000;2023-12-20T03:00:09;6.60;89.60
24426;DHT22;12611;44.446;26.000;2023-12-20T03:02:38;6.60;89.50
24426;DHT22;12611;44.446;26.000;2023-12-20T03:05:08;6.60;89.40
24426;DHT22;12611;44.446;26.000;2023-12-20T03:07:37;6.60;89.20
24426;DHT22;12611;44.446;26.000;2023-12-20T03:10:07;6.60;89.10
24426;DHT22;12611;44.446;26.000;2023-12-20T03:12:46;6.50;88.90
24426;DHT22;12611;44.446;26.000;2023-12-20T03:15:15;6.50;88.90
24426;DHT22;12611;44.446;26.000;2023-12-20T03:17:44;6.50;88.80
24426;DHT22;12611;44.446;26.000;2023-12-20T03:20:13;6.50;88.60
24426;DHT22;12611;44.446;26.000;2023-12-20T03:22:41;6.50;88.50
24426;DHT22;12611;44.446;26.000;2023-12-20T03:25:11;6.40;88.50
24426;DHT22;12611;44.446;26.000;2023-12-20T03:27:40;6.40;88.60
24426;DHT22;12611;44.446;26.000;2023-12-20T03:30:09;6.40;88.80
24426;DHT22;12611;44.446;26.000;2023-12-20T03:32:39;6.40;89.00
24426;DHT22;12611;44.446;26.000;2023-12-20T03:35:07;6.40;89.30
24426;DHT22;12611;44.446;26.000;2023-12-20T03:37:36;6.40;89.40
24426;DHT22;12611;44.446;26.000;2023-12-20T03:40:05;6.30;89.40
24426;DHT22;12611;44.446;26.000;2023-12-20T03:42:36;6.40;89.50
24426;DHT22;12611;44.446;26.000;2023-12-20T03:45:05;6.40;89.50
24426;DHT22;12611;44.446;26.000;2023-12-20T03:47:34;6.40;89.50
24426;DHT22;12611;44.446;26.000;2023-12-20T03:50:03;6.40;89.40
24426;DHT22;12611;44.446;26.000;2023-12-20T03:52:32;6.40;89.40
24426;DHT22;12611;44.446;26.000;2023-12-20T03:55:00;6.50;89.40
24426;DHT22;12611;44.446;26.000;2023-12-20T03:57:29;6.50;89.20
24426;DHT22;12611;44.446;26.000;2023-12-20T03:59:59;6.50;89.10
24426;DHT22;12611;44.446;26.000;2023-12-20T04:02:27;6.50;88.80
24426;DHT22;12611;44.446;26.000;2023-12-20T04:04:56;6.40;88.70
24426;DHT22;12611;44.446;26.000;2023-12-20T04:07:25;6.40;88.80
24426;DHT22;12611;44.446;26.000;2023-12-20T04:09:53;6.50;88.80
24426;DHT22;12611;44.446;26.000;2023-12-20T04:12:22;6.40;88.60
24426;DHT22;12611;44.446;26.000;2023-12-20T04:14:51;6.40;88.60
24426;DHT22;12611;44.446;26.000;2023-12-20T04:17:21;6.40;88.60
24426;DHT22;12611;44.446;26.000;2023-12-20T04:19:50;6.50;88.60
24426;DHT22;12611;44.446;26.000;2023-12-20T04:22:18;6.40;88.50
24426;DHT22;12611;44.446;26.000;2023-12-20T04:24:48;6.40;88.50
24426;DHT22;12611;44.446;26.000;2023-12-20T04:27:16;6.50;88.50
24426;DHT22;12611;44.446;26.000;2023-12-20T04:29:45;6.50;88.50
24426;DHT22;12611;44.446;26.000;2023-12-20T04:32:13;6.50;88.30
24426;DHT22;12611;44.446;26.000;2023-12-20T04:34:43;6.50;88.40
24426;DHT22;12611;44.446;26.000;2023-12-20T04:37:12;6.50;88.40
24426;DHT22;12611;44.446;26.000;2023-12-20T04:39:40;6.50;88.30
24426;DHT22;12611;44.446;26.000;2023-12-20T04:42:12;6.50;88.30
24426;DHT22;12611;44.446;26.000;2023-12-20T04:44:41;6.40;88.20
24426;DHT22;12611;44.446;26.000;2023-12-20T04:47:10;6.50;88.20
24426;DHT22;12611;44.446;26.000;2023-12-20T04:49:40;6.50;88.10
24426;DHT22;12611;44.446;26.000;2023-12-20T04:52:10;6.50;88.00
24426;DHT22;12611;44.446;26.000;2023-12-20T04:54:38;6.50;88.00
24426;DHT22;12611;44.446;26.000;2023-12-20T04:57:10;6.50;87.90
24426;DHT22;12611;44.446;26.000;2023-12-20T04:59:39;6.50;88.00
24426;DHT22;12611;44.446;26.000;2023-12-20T05:02:08;6.50;88.00
24426;DHT22;12611;44.446;26.000;2023-12-20T05:04:39;6.50;88.00
24426;DHT22;12611;44.446;26.000;2023-12-20T05:07:10;6.50;88.00
24426;DHT22;12611;44.446;26.000;2023-12-20T05:09:39;6.60;88.00
24426;DHT22;12611;44.446;26.000;2023-12-20T05:12:08;6.50;87.90
24426;DHT22;12611;44.446;26.000;2023-12-20T05:14:37;6.50;87.80
24426;DHT22;12611;44.446;26.000;2023-12-20T05:17:06;6.50;87.70
24426;DHT22;12611;44.446;26.000;2023-12-20T05:19:34;6.60;87.70
24426;DHT22;12611;44.446;26.000;2023-12-20T05:22:03;6.60;87.70
24426;DHT22;12611;44.446;26.000;2023-12-20T05:24:33;6.60;87.70
24426;DHT22;12611;44.446;26.000;2023-12-20T05:27:02;6.60;87.60
24426;DHT22;12611;44.446;26.000;2023-12-20T05:29:31;6.60;87.60
24426;DHT22;12611;44.446;26.000;2023-12-20T05:32:00;6.60;87.50
24426;DHT22;12611;44.446;26.000;2023-12-20T05:34:28;6.60;87.40
24426;DHT22;12611;44.446;26.000;2023-12-20T05:36:57;6.60;87.30
24426;DHT22;12611;44.446;26.000;2023-12-20T05:39:26;6.60;87.20
24426;DHT22;12611;44.446;26.000;2023-12-20T05:41:56;6.60;87.00
24426;DHT22;12611;44.446;26.000;2023-12-20T05:44:25;6.60;86.90
24426;DHT22;12611;44.446;26.000;2023-12-20T05:46:53;6.60;86.70
24426;DHT22;12611;44.446;26.000;2023-12-20T05:49:22;6.60;86.70
24426;DHT22;12611;44.446;26.000;2023-12-20T05:51:50;6.60;86.70
24426;DHT22;12611;44.446;26.000;2023-12-20T05:54:19;6.70;86.50
24426;DHT22;12611;44.446;26.000;2023-12-20T05:56:48;6.60;86.40
24426;DHT22;12611;44.446;26.000;2023-12-20T05:59:19;6.60;86.30
24426;DHT22;12611;44.446;26.000;2023-12-20T06:01:47;6.70;86.30
24426;DHT22;12611;44.446;26.000;2023-12-20T06:04:16;6.70;86.30
24426;DHT22;12611;44.446;26.000;2023-12-20T06:06:47;6.70;86.40
24426;DHT22;12611;44.446;26.000;2023-12-20T06:09:15;6.70;86.30
24426;DHT22;12611;44.446;26.000;2023-12-20T06:11:44;6.70;86.30
24426;DHT22;12611;44.446;26.000;2023-12-20T06:14:12;6.70;86.30
24426;DHT22;12611;44.446;26.000;2023-12-20T06:16:42;6.80;86.30
24426;DHT22;12611;44.446;26.000;2023-12-20T06:19:12;6.80;86.20
24426;DHT22;12611;44.446;26.000;2023-12-20T06:21:41;6.80;86.20
24426;DHT22;12611;44.446;26.000;2023-12-20T06:24:11;6.80;86.30
24426;DHT22;12611;44.446;26.000;2023-12-20T06:26:40;6.80;86.30
24426;DHT22;12611;44.446;26.000;2023-12-20T06:29:09;6.80;86.30
24426;DHT22;12611;44.446;26.000;2023-12-20T06:31:37;6.80;86.30
24426;DHT22;12611;44.446;26.000;2023-12-20T06:34:07;6.80;86.30
24426;DHT22;12611;44.446;26.000;2023-12-20T06:36:36;6.80;86.30
24426;DHT22;12611;44.446;26.000;2023-12-20T06:39:04;6.80;86.40
24426;DHT22;12611;44.446;26.000;2023-12-20T06:41:33;6.90;86.40
24426;DHT22;12611;44.446;26.000;2023-12-20T06:44:01;6.80;86.30
24426;DHT22;12611;44.446;26.000;2023-12-20T06:46:30;6.80;86.30
24426;DHT22;12611;44.446;26.000;2023-12-20T06:48:58;6.90;86.40
24426;DHT22;12611;44.446;26.000;2023-12-20T06:51:28;6.90;86.40
24426;DHT22;12611;44.446;26.000;2023-12-20T06:53:58;6.90;86.40
24426;DHT22;12611;44.446;26.000;2023-12-20T06:56:27;6.90;86.30
24426;DHT22;12611;44.446;26.000;2023-12-20T06:58:55;6.90;86.40
24426;DHT22;12611;44.446;26.000;2023-12-20T07:01:24;6.90;86.40
24426;DHT22;12611;44.446;26.000;2023-12-20T07:03:53;6.90;86.30
24426;DHT22;12611;44.446;26.000;2023-12-20T07:06:21;7.00;86.40
24426;DHT22;12611;44.446;26.000;2023-12-20T07:08:54;7.00;86.40
24426;DHT22;12611;44.446;26.000;2023-12-20T07:11:22;7.00;86.40
24426;DHT22;12611;44.446;26.000;2023-12-20T07:13:51;7.00;86.40
24426;DHT22;12611;44.446;26.000;2023-12-20T07:16:21;7.00;86.30
24426;DHT22;12611;44.446;26.000;2023-12-20T07:18:50;7.00;86.30
24426;DHT22;12611;44.446;26.000;2023-12-20T07:21:20;7.00;86.40
24426;DHT22;12611;44.446;26.000;2023-12-20T07:23:48;7.00;86.30
24426;DHT22;12611;44.446;26.000;2023-12-20T07:26:18;7.00;86.30
24426;DHT22;12611;44.446;26.000;2023-12-20T07:28:47;7.00;86.30
24426;DHT22;12611;44.446;26.000;2023-12-20T07:31:16;7.00;86.20
24426;DHT22;12611;44.446;26.000;2023-12-20T07:33:45;7.10;86.30
24426;DHT22;12611;44.446;26.000;2023-12-20T07:36:14;7.10;86.20
24426;DHT22;12611;44.446;26.000;2023-12-20T07:38:42;7.10;86.20
24426;DHT22;12611;44.446;26.000;2023-12-20T07:41:11;7.10;86.20
24426;DHT22;12611;44.446;26.000;2023-12-20T07:43:42;7.10;86.10
24426;DHT22;12611;44.446;26.000;2023-12-20T07:46:10;7.20;86.10
24426;DHT22;12611;44.446;26.000;2023-12-20T07:48:41;7.20;86.10
24426;DHT22;12611;44.446;26.000;2023-12-20T07:51:12;7.20;86.10
24426;DHT22;12611;44.446;26.000;2023-12-20T07:53:43;7.30;86.20
24426;DHT22;12611;44.446;26.000;2023-12-20T07:56:14;7.40;86.30
24426;DHT22;12611;44.446;26.000;2023-12-20T07:58:46;7.50;86.30
24426;DHT22;12611;44.446;26.000;2023-12-20T08:01:19;7.60;86.20
24426;DHT22;12611;44.446;26.000;2023-12-20T08:03:49;7.70;86.10
24426;DHT22;12611;44.446;26.000;2023-12-20T08:06:19;7.70;85.70
24426;DHT22;12611;44.446;26.000;2023-12-20T08:08:50;7.80;85.60
24426;DHT22;12611;44.446;26.000;2023-12-20T08:11:28;7.90;85.90
24426;DHT22;12611;44.446;26.000;2023-12-20T08:14:00;7.90;85.70
24426;DHT22;12611;44.446;26.000;2023-12-20T08:16:28;8.00;85.80
24426;DHT22;12611;44.446;26.000;2023-12-20T08:18:57;8.10;85.90
24426;DHT22;12611;44.446;26.000;2023-12-20T08:21:25;8.10;85.70
24426;DHT22;12611;44.446;26.000;2023-12-20T08:23:54;8.20;85.00
24426;DHT22;12611;44.446;26.000;2023-12-20T08:26:23;8.20;84.70
24426;DHT22;12611;44.446;26.000;2023-12-20T08:28:51;8.20;84.10
24426;DHT22;12611;44.446;26.000;2023-12-20T08:31:21;8.30;84.10
24426;DHT22;12611;44.446;26.000;2023-12-20T08:33:51;8.30;83.50
24426;DHT22;12611;44.446;26.000;2023-12-20T08:36:20;8.40;82.70
24426;DHT22;12611;44.446;26.000;2023-12-20T08:38:50;8.40;83.10
24426;DHT22;12611;44.446;26.000;2023-12-20T08:41:21;8.50;83.50
24426;DHT22;12611;44.446;26.000;2023-12-20T08:43:52;8.60;83.80
24426;DHT22;12611;44.446;26.000;2023-12-20T08:46:23;8.60;83.50
24426;DHT22;12611;44.446;26.000;2023-12-20T08:48:52;8.70;83.00
24426;DHT22;12611;44.446;26.000;2023-12-20T08:51:21;8.80;83.00
24426;DHT22;12611;44.446;26.000;2023-12-20T08:53:52;8.80;82.90
24426;DHT22;12611;44.446;26.000;2023-12-20T08:56:21;8.90;82.60
24426;DHT22;12611;44.446;26.000;2023-12-20T08:58:49;9.00;82.50
24426;DHT22;12611;44.446;26.000;2023-12-20T09:01:18;9.00;82.60
24426;DHT22;12611;44.446;26.000;2023-12-20T09:03:48;9.10;83.00
24426;DHT22;12611;44.446;26.000;2023-12-20T09:06:17;9.10;83.40
24426;DHT22;12611;44.446;26.000;2023-12-20T09:08:46;9.20;83.50
24426;DHT22;12611;44.446;26.000;2023-12-20T09:11:15;9.30;83.70
24426;DHT22;12611;44.446;26.000;2023-12-20T09:13:45;9.30;83.70
24426;DHT22;12611;44.446;26.000;2023-12-20T09:16:13;9.40;83.70
24426;DHT22;12611;44.446;26.000;2023-12-20T09:18:43;9.50;84.00
24426;DHT22;12611;44.446;26.000;2023-12-20T09:21:13;9.50;83.30
24426;DHT22;12611;44.446;26.000;2023-12-20T09:23:44;9.60;83.60
24426;DHT22;12611;44.446;26.000;2023-12-20T09:26:13;9.70;83.60
24426;DHT22;12611;44.446;26.000;2023-12-20T09:28:41;9.70;83.80
24426;DHT22;12611;44.446;26.000;2023-12-20T09:31:10;9.80;83.30
24426;DHT22;12611;44.446;26.000;2023-12-20T09:33:39;9.80;82.80
24426;DHT22;12611;44.446;26.000;2023-12-20T09:36:09;9.90;82.70
24426;DHT22;12611;44.446;26.000;2023-12-20T09:38:40;9.90;82.50
24426;DHT22;12611;44.446;26.000;2023-12-20T09:41:10;10.00;82.40
24426;DHT22;12611;44.446;26.000;2023-12-20T09:43:42;10.00;82.50
24426;DHT22;12611;44.446;26.000;2023-12-20T09:46:12;10.10;82.60
24426;DHT22;12611;44.446;26.000;2023-12-20T09:48:45;10.10;82.00
24426;DHT22;12611;44.446;26.000;2023-12-20T09:51:15;10.10;81.50
24426;DHT22;12611;44.446;26.000;2023-12-20T09:53:47;10.20;81.80
24426;DHT22;12611;44.446;26.000;2023-12-20T09:56:17;10.20;81.80
24426;DHT22;12611;44.446;26.000;2023-12-20T09:58:45;10.30;81.30
24426;DHT22;12611;44.446;26.000;2023-12-20T10:01:15;10.30;81.30
24426;DHT22;12611;44.446;26.000;2023-12-20T10:03:44;10.30;81.10
24426;DHT22;12611;44.446;26.000;2023-12-20T10:06:13;10.40;81.70
24426;DHT22;12611;44.446;26.000;2023-12-20T10:08:42;10.50;81.70
24426;DHT22;12611;44.446;26.000;2023-12-20T10:11:12;10.50;81.30
24426;DHT22;12611;44.446;26.000;2023-12-20T10:13:42;10.60;81.30
24426;DHT22;12611;44.446;26.000;2023-12-20T10:16:11;10.60;80.70
24426;DHT22;12611;44.446;26.000;2023-12-20T10:18:40;10.60;80.20
24426;DHT22;12611;44.446;26.000;2023-12-20T10:21:08;10.60;80.40
24426;DHT22;12611;44.446;26.000;2023-12-20T10:23:39;10.60;80.40
24426;DHT22;12611;44.446;26.000;2023-12-20T10:26:08;10.70;80.80
24426;DHT22;12611;44.446;26.000;2023-12-20T10:28:39;10.70;80.90
24426;DHT22;12611;44.446;26.000;2023-12-20T10:31:08;10.80;81.00
24426;DHT22;12611;44.446;26.000;2023-12-20T10:33:36;10.80;82.00
24426;DHT22;12611;44.446;26.000;2023-12-20T10:36:09;10.90;81.60
24426;DHT22;12611;44.446;26.000;2023-12-20T10:38:42;11.00;81.80
24426;DHT22;12611;44.446;26.000;2023-12-20T10:41:11;11.00;81.80
24426;DHT22;12611;44.446;26.000;2023-12-20T10:43:42;11.10;81.90
24426;DHT22;12611;44.446;26.000;2023-12-20T10:46:11;11.20;82.20
24426;DHT22;12611;44.446;26.000;2023-12-20T10:48:43;11.20;82.10
24426;DHT22;12611;44.446;26.000;2023-12-20T10:51:14;11.30;81.90
24426;DHT22;12611;44.446;26.000;2023-12-20T10:53:47;11.40;82.20
24426;DHT22;12611;44.446;26.000;2023-12-20T10:56:18;11.40;81.90
24426;DHT22;12611;44.446;26.000;2023-12-20T10:58:49;11.50;81.90
24426;DHT22;12611;44.446;26.000;2023-12-20T11:01:18;11.50;81.30
24426;DHT22;12611;44.446;26.000;2023-12-20T11:03:49;11.60;80.90
24426;DHT22;12611;44.446;26.000;2023-12-20T11:06:33;11.60;81.30
24426;DHT22;12611;44.446;26.000;2023-12-20T11:09:12;11.70;81.50
24426;DHT22;12611;44.446;26.000;2023-12-20T11:11:57;11.80;81.60
24426;DHT22;12611;44.446;26.000;2023-12-20T11:14:33;11.90;81.70
24426;DHT22;12611;44.446;26.000;2023-12-20T11:17:06;11.90;81.50
24426;DHT22;12611;44.446;26.000;2023-12-20T11:20:03;12.00;81.10
24426;DHT22;12611;44.446;26.000;2023-12-20T11:22:32;12.10;80.50
24426;DHT22;12611;44.446;26.000;2023-12-20T11:25:08;12.10;80.10
24426;DHT22;12611;44.446;26.000;2023-12-20T11:27:43;12.20;80.40
24426;DHT22;12611;44.446;26.000;2023-12-20T11:30:18;12.10;79.70
24426;DHT22;12611;44.446;26.000;2023-12-20T11:32:48;12.20;79.50
24426;DHT22;12611;44.446;26.000;2023-12-20T11:35:18;12.30;79.50
24426;DHT22;12611;44.446;26.000;2023-12-20T11:37:49;12.30;79.60
24426;DHT22;12611;44.446;26.000;2023-12-20T11:40:19;12.30;79.10
24426;DHT22;12611;44.446;26.000;2023-12-20T11:42:49;12.40;79.50
24426;DHT22;12611;44.446;26.000;2023-12-20T11:45:24;12.40;79.40
24426;DHT22;12611;44.446;26.000;2023-12-20T11:47:57;12.40;79.10
24426;DHT22;12611;44.446;26.000;2023-12-20T11:50:26;12.40;78.90
24426;DHT22;12611;44.446;26.000;2023-12-20T11:52:55;12.30;78.40
24426;DHT22;12611;44.446;26.000;2023-12-20T11:55:24;12.30;78.50
24426;DHT22;12611;44.446;26.000;2023-12-20T11:57:53;12.30;78.60
24426;DHT22;12611;44.446;26.000;2023-12-20T12:00:24;12.30;78.70
24426;DHT22;12611;44.446;26.000;2023-12-20T12:02:57;12.30;78.80
24426;DHT22;12611;44.446;26.000;2023-12-20T12:05:25;12.20;78.90
24426;DHT22;12611;44.446;26.000;2023-12-20T12:07:54;12.20;79.60
24426;DHT22;12611;44.446;26.000;2023-12-20T12:10:23;12.20;79.20
24426;DHT22;12611;44.446;26.000;2023-12-20T12:12:52;12.20;79.40
24426;DHT22;12611;44.446;26.000;2023-12-20T12:15:23;12.10;79.50
24426;DHT22;12611;44.446;26.000;2023-12-20T12:17:54;12.10;80.00
24426;DHT22;12611;44.446;26.000;2023-12-20T12:20:23;12.10;80.20
24426;DHT22;12611;44.446;26.000;2023-12-20T12:22:58;12.10;80.10
24426;DHT22;12611;44.446;26.000;2023-12-20T12:25:29;12.10;80.20
24426;DHT22;12611;44.446;26.000;2023-12-20T12:27:58;12.10;80.40
24426;DHT22;12611;44.446;26.000;2023-12-20T12:30:28;12.10;80.40
24426;DHT22;12611;44.446;26.000;2023-12-20T12:33:05;12.00;80.50
24426;DHT22;12611;44.446;26.000;2023-12-20T12:35:34;12.00;80.50
24426;DHT22;12611;44.446;26.000;2023-12-20T12:38:03;12.00;80.50
24426;DHT22;12611;44.446;26.000;2023-12-20T12:40:35;12.00;80.80
24426;DHT22;12611;44.446;26.000;2023-12-20T12:43:04;11.90;81.00
24426;DHT22;12611;44.446;26.000;2023-12-20T12:45:35;11.90;81.10
24426;DHT22;12611;44.446;26.000;2023-12-20T12:48:04;11.90;81.60
24426;DHT22;12611;44.446;26.000;2023-12-20T12:50:33;11.90;81.70
24426;DHT22;12611;44.446;26.000;2023-12-20T12:53:01;11.90;81.90
24426;DHT22;12611;44.446;26.000;2023-12-20T12:55:30;11.90;82.20
24426;DHT22;12611;44.446;26.000;2023-12-20T12:57:58;11.90;82.20
24426;DHT22;12611;44.446;26.000;2023-12-20T13:00:27;11.90;82.40
24426;DHT22;12611;44.446;26.000;2023-12-20T13:02:57;11.90;82.40
24426;DHT22;12611;44.446;26.000;2023-12-20T13:05:26;11.90;82.50
24426;DHT22;12611;44.446;26.000;2023-12-20T13:07:55;11.90;82.60
24426;DHT22;12611;44.446;26.000;2023-12-20T13:10:25;11.90;82.70
24426;DHT22;12611;44.446;26.000;2023-12-20T13:12:54;11.90;82.90
24426;DHT22;12611;44.446;26.000;2023-12-20T13:15:23;11.90;82.90
24426;DHT22;12611;44.446;26.000;2023-12-20T13:17:51;11.80;83.20
24426;DHT22;12611;44.446;26.000;2023-12-20T13:20:22;11.80;83.30
24426;DHT22;12611;44.446;26.000;2023-12-20T13:22:51;11.80;83.50
24426;DHT22;12611;44.446;26.000;2023-12-20T13:25:19;11.80;83.50
24426;DHT22;12611;44.446;26.000;2023-12-20T13:27:48;11.80;83.60
24426;DHT22;12611;44.446;26.000;2023-12-20T13:30:17;11.80;83.80
24426;DHT22;12611;44.446;26.000;2023-12-20T13:32:45;11.80;83.80
24426;DHT22;12611;44.446;26.000;2023-12-20T13:35:15;11.80;83.90
24426;DHT22;12611;44.446;26.000;2023-12-20T13:37:46;11.90;83.90
24426;DHT22;12611;44.446;26.000;2023-12-20T13:40:15;13.00;83.30
24426;DHT22;12611;44.446;26.000;2023-12-20T13:42:45;12.90;82.00
24426;DHT22;12611;44.446;26.000;2023-12-20T13:45:13;12.80;82.30
24426;DHT22;12611;44.446;26.000;2023-12-20T13:47:42;12.70;82.30
24426;DHT22;12611;44.446;26.000;2023-12-20T13:50:10;12.70;82.20
24426;DHT22;12611;44.446;26.000;2023-12-20T13:52:39;12.90;81.80
24426;DHT22;12611;44.446;26.000;2023-12-20T13:55:09;12.70;81.90
24426;DHT22;12611;44.446;26.000;2023-12-20T13:57:38;12.60;82.10
24426;DHT22;12611;44.446;26.000;2023-12-20T14:00:21;12.60;82.20
24426;DHT22;12611;44.446;26.000;2023-12-20T14:02:50;12.50;82.40
24426;DHT22;12611;44.446;26.000;2023-12-20T14:05:18;12.50;82.50
24426;DHT22;12611;44.446;26.000;2023-12-20T14:07:51;12.40;82.60
24426;DHT22;12611;44.446;26.000;2023-12-20T14:10:22;12.40;82.90
24426;DHT22;12611;44.446;26.000;2023-12-20T14:12:50;12.30;82.90
24426;DHT22;12611;44.446;26.000;2023-12-20T14:15:20;12.20;83.10
24426;DHT22;12611;44.446;26.000;2023-12-20T14:17:52;12.20;83.30
24426;DHT22;12611;44.446;26.000;2023-12-20T14:20:23;12.10;83.70
24426;DHT22;12611;44.446;26.000;2023-12-20T14:22:52;12.10;83.70
24426;DHT22;12611;44.446;26.000;2023-12-20T14:25:23;12.00;83.70
24426;DHT22;12611;44.446;26.000;2023-12-20T14:27:57;12.00;83.80
24426;DHT22;12611;44.446;26.000;2023-12-20T14:30:26;12.00;84.10
24426;DHT22;12611;44.446;26.000;2023-12-20T14:32:55;11.90;84.10
24426;DHT22;12611;44.446;26.000;2023-12-20T14:35:23;11.90;84.10
24426;DHT22;12611;44.446;26.000;2023-12-20T14:37:52;11.80;84.20
24426;DHT22;12611;44.446;26.000;2023-12-20T14:40:25;11.80;84.20
24426;DHT22;12611;44.446;26.000;2023-12-20T14:42:54;11.70;84.10
24426;DHT22;12611;44.446;26.000;2023-12-20T14:45:27;11.70;84.80
24426;DHT22;12611;44.446;26.000;2023-12-20T14:47:55;11.70;84.00
24426;DHT22;12611;44.446;26.000;2023-12-20T14:50:24;11.60;83.80
24426;DHT22;12611;44.446;26.000;2023-12-20T14:52:53;11.60;83.80
24426;DHT22;12611;44.446;26.000;2023-12-20T14:55:23;11.50;83.70
24426;DHT22;12611;44.446;26.000;2023-12-20T14:57:55;11.50;83.60
24426;DHT22;12611;44.446;26.000;2023-12-20T15:00:23;11.40;83.60
24426;DHT22;12611;44.446;26.000;2023-12-20T15:02:52;11.40;83.50
24426;DHT22;12611;44.446;26.000;2023-12-20T15:05:21;11.30;83.50
24426;DHT22;12611;44.446;26.000;2023-12-20T15:07:50;11.30;83.60
24426;DHT22;12611;44.446;26.000;2023-12-20T15:10:18;11.30;83.50
24426;DHT22;12611;44.446;26.000;2023-12-20T15:12:47;11.20;83.50
24426;DHT22;12611;44.446;26.000;2023-12-20T15:15:17;11.20;83.50
24426;DHT22;12611;44.446;26.000;2023-12-20T15:17:46;11.10;84.30
24426;DHT22;12611;44.446;26.000;2023-12-20T15:20:16;11.10;83.40
24426;DHT22;12611;44.446;26.000;2023-12-20T15:22:44;11.10;83.50
24426;DHT22;12611;44.446;26.000;2023-12-20T15:25:13;11.00;83.40
24426;DHT22;12611;44.446;26.000;2023-12-20T15:27:47;11.00;83.50
24426;DHT22;12611;44.446;26.000;2023-12-20T15:30:21;11.00;83.60
24426;DHT22;12611;44.446;26.000;2023-12-20T15:32:51;10.90;83.60
24426;DHT22;12611;44.446;26.000;2023-12-20T15:35:20;10.90;83.70
24426;DHT22;12611;44.446;26.000;2023-12-20T15:37:49;10.90;83.70
24426;DHT22;12611;44.446;26.000;2023-12-20T15:40:18;10.90;83.80